Time;durP1;ratioP1;P1;durP2;ratioP2;P2;SDS_P1;SDS_P2;PMS_P1;PMS_P2;Temp;Humidity;BMP_temperature;BMP_pressure;BME280_temperature;BME280_humidity;BME280_pressure;Samples;Min_cycle;Max_cycle;Signal;HPM_P1;HPM_P2
2022/11/11 00:01:42;;;;;;;;;;;3.10;99.90;;;;;;5038914;28;19926;-74
2022/11/11 00:04:08;;;;;;;;;;;3.00;99.90;;;;;;5037678;28;19909;-73
2022/11/11 00:06:33;;;;;;;;;;;3.10;99.90;;;;;;5035642;28;19916;-73
2022/11/11 00:08:59;;;;;;;;;;;3.00;99.90;;;;;;5015476;28;19905;-74
2022/11/11 00:11:24;;;;;;;;;;;3.20;99.90;;;;;;5037078;28;20297;-74
2022/11/11 00:13:51;;;;;;;;;;;3.10;99.90;;;;;;5038015;28;19959;-74
2022/11/11 00:16:18;;;;;;;;;;;5.80;99.90;;;;;;5042698;28;19905;-75
2022/11/11 00:27:04;;;;;;;;;;;2.60;99.90;;;;;;5041166;28;19912;-77
2022/11/11 00:29:29;;;;;;;;;;;2.50;99.90;;;;;;5023419;28;19909;-75
2022/11/11 00:34:39;;;;;;;;;;;3.10;99.90;;;;;;5039624;28;19967;-75
2022/11/11 00:37:05;;;;;;;;;;;2.60;99.90;;;;;;5036872;28;19909;-75
2022/11/11 00:39:30;;;;;;;;;;;2.60;99.90;;;;;;5038079;28;20254;-74
2022/11/11 00:41:56;;;;;;;;;;;2.60;99.90;;;;;;5033160;28;19920;-74
2022/11/11 00:44:21;;;;;;;;;;;2.60;99.90;;;;;;5014426;28;19905;-73
2022/11/11 00:52:15;;;;;;;;;;;3.00;99.90;;;;;;5035041;28;19920;-75
2022/11/11 00:54:41;;;;;;;;;;;3.10;99.90;;;;;;5019568;28;19909;-75
2022/11/11 00:57:08;;;;;;;;;;;2.80;99.90;;;;;;5020835;28;19909;-75
2022/11/11 00:59:33;;;;;;;;;;;2.80;99.90;;;;;;5034229;28;19905;-74
2022/11/11 01:01:59;;;;;;;;;;;2.70;99.90;;;;;;5016083;28;19974;-75
2022/11/11 01:04:27;;;;;;;;;;;2.60;99.90;;;;;;5035098;28;19905;-75
2022/11/11 01:06:52;;;;;;;;;;;2.60;99.90;;;;;;5037424;28;20083;-74
2022/11/11 01:09:18;;;;;;;;;;;2.60;99.90;;;;;;5036692;28;20079;-75
2022/11/11 01:11:43;;;;;;;;;;;2.60;99.90;;;;;;5033808;28;19905;-74
2022/11/11 01:14:09;;;;;;;;;;;2.60;99.90;;;;;;5034811;28;19912;-74
2022/11/11 01:16:34;;;;;;;;;;;2.90;99.90;;;;;;5019275;28;19912;-75
2022/11/11 01:19:00;;;;;;;;;;;3.60;99.90;;;;;;5038739;28;19905;-74
2022/11/11 01:21:25;;;;;;;;;;;3.40;99.90;;;;;;5038620;28;19972;-75
2022/11/11 01:23:51;;;;;;;;;;;3.50;99.90;;;;;;5038731;28;19996;-74
2022/11/11 01:26:18;;;;;;;;;;;3.50;99.90;;;;;;5039323;28;19909;-74
2022/11/11 01:28:47;;;;;;;;;;;3.60;99.90;;;;;;5038635;28;19909;-74
2022/11/11 01:31:13;;;;;;;;;;;2.70;99.90;;;;;;5037685;28;19932;-74
2022/11/11 01:33:39;;;;;;;;;;;3.50;99.90;;;;;;5036529;28;19924;-74
2022/11/11 01:36:10;;;;;;;;;;;3.60;99.90;;;;;;5036564;28;19986;-74
2022/11/11 01:38:36;;;;;;;;;;;2.90;99.90;;;;;;5037464;28;20378;-75
2022/11/11 01:41:31;;;;;;;;;;;3.80;99.90;;;;;;5029544;28;19947;-74
2022/11/11 01:43:51;;;;;;;;;;;3.40;99.90;;;;;;5032850;28;19908;-74
2022/11/11 01:46:24;;;;;;;;;;;3.70;99.90;;;;;;5015145;28;19905;-73
2022/11/11 01:51:48;;;;;;;;;;;3.00;99.90;;;;;;5036515;28;20273;-74
2022/11/11 01:54:17;;;;;;;;;;;3.10;99.90;;;;;;5033099;28;19912;-74
2022/11/11 01:56:45;;;;;;;;;;;3.20;99.90;;;;;;5032890;28;20370;-74
2022/11/11 01:59:11;;;;;;;;;;;3.60;99.90;;;;;;5019434;28;19909;-74
2022/11/11 02:01:37;;;;;;;;;;;3.70;99.90;;;;;;5035152;28;19913;-73
2022/11/11 02:06:49;;;;;;;;;;;3.20;99.90;;;;;;5034367;28;19912;-74
2022/11/11 02:09:15;;;;;;;;;;;4.30;99.90;;;;;;5037457;28;19909;-74
2022/11/11 02:14:35;;;;;;;;;;;3.30;99.90;;;;;;5036540;28;19963;-74
2022/11/11 02:17:04;;;;;;;;;;;3.40;99.90;;;;;;5036378;28;19980;-74
2022/11/11 02:19:36;;;;;;;;;;;3.20;99.90;;;;;;5017865;28;19995;-74
2022/11/11 02:22:01;;;;;;;;;;;3.20;99.90;;;;;;5033873;28;19944;-74
2022/11/11 02:24:28;;;;;;;;;;;3.30;99.90;;;;;;5036183;28;19905;-74
2022/11/11 02:26:54;;;;;;;;;;;3.40;99.90;;;;;;5036483;28;19911;-74
2022/11/11 02:29:21;;;;;;;;;;;3.60;99.90;;;;;;5036093;28;20007;-74
2022/11/11 02:31:46;;;;;;;;;;;4.80;99.90;;;;;;5034902;28;19905;-74
2022/11/11 02:34:12;;;;;;;;;;;3.40;99.90;;;;;;5036370;28;19919;-73
2022/11/11 02:36:38;;;;;;;;;;;3.40;99.90;;;;;;5034967;28;19916;-74
2022/11/11 02:39:03;;;;;;;;;;;3.30;99.90;;;;;;5034364;28;19905;-74
2022/11/11 02:44:13;;;;;;;;;;;3.20;99.90;;;;;;5035060;28;19916;-74
2022/11/11 02:46:39;;;;;;;;;;;3.30;99.90;;;;;;5035041;28;19905;-75
2022/11/11 02:49:04;;;;;;;;;;;3.20;99.90;;;;;;5034351;28;20323;-73
2022/11/11 02:51:30;;;;;;;;;;;3.50;99.90;;;;;;5033464;28;19905;-73
2022/11/11 02:53:57;;;;;;;;;;;3.40;99.90;;;;;;5033337;28;20362;-73
2022/11/11 02:59:10;;;;;;;;;;;3.90;99.90;;;;;;5034145;28;20317;-74
2022/11/11 03:01:35;;;;;;;;;;;3.20;99.90;;;;;;5032921;28;19913;-74
2022/11/11 03:04:01;;;;;;;;;;;3.30;99.90;;;;;;5016685;28;19905;-74
2022/11/11 03:06:27;;;;;;;;;;;3.30;99.90;;;;;;5038379;28;19931;-74
2022/11/11 03:08:52;;;;;;;;;;;3.20;99.90;;;;;;5039825;28;19927;-74
2022/11/11 03:11:26;;;;;;;;;;;3.10;99.90;;;;;;5022595;28;19909;-74
2022/11/11 03:13:55;;;;;;;;;;;3.10;99.90;;;;;;5038305;28;19916;-74
2022/11/11 03:19:06;;;;;;;;;;;3.10;99.90;;;;;;5037792;28;19948;-74
2022/11/11 03:21:31;;;;;;;;;;;3.00;99.90;;;;;;5037809;28;19913;-74
2022/11/11 03:23:57;;;;;;;;;;;3.00;99.90;;;;;;5038858;28;20274;-74
2022/11/11 03:26:22;;;;;;;;;;;3.10;99.90;;;;;;5021353;28;20239;-74
2022/11/11 03:28:48;;;;;;;;;;;3.10;99.90;;;;;;5040149;28;19905;-74
2022/11/11 03:31:14;;;;;;;;;;;2.80;99.90;;;;;;5039700;28;19909;-74
2022/11/11 03:33:39;;;;;;;;;;;2.80;99.90;;;;;;5036861;28;19909;-73
2022/11/11 03:36:05;;;;;;;;;;;3.10;99.90;;;;;;5037008;28;19949;-73
2022/11/11 03:38:31;;;;;;;;;;;2.60;99.90;;;;;;5036987;28;19916;-73
2022/11/11 03:40:57;;;;;;;;;;;2.70;99.90;;;;;;5033731;28;19995;-74
2022/11/11 03:43:26;;;;;;;;;;;2.80;99.90;;;;;;5033651;28;19983;-73
2022/11/11 03:45:53;;;;;;;;;;;3.00;99.90;;;;;;5033592;28;19908;-74
2022/11/11 03:48:18;;;;;;;;;;;2.50;99.90;;;;;;5015345;28;20003;-74
2022/11/11 03:50:46;;;;;;;;;;;3.10;99.90;;;;;;5033582;28;19944;-74
2022/11/11 03:53:13;;;;;;;;;;;2.70;99.90;;;;;;5016052;28;19940;-74
2022/11/11 03:55:39;;;;;;;;;;;2.50;99.90;;;;;;5033998;28;19905;-73
2022/11/11 03:58:05;;;;;;;;;;;2.40;99.90;;;;;;5015998;28;19916;-74
2022/11/11 04:00:31;;;;;;;;;;;2.80;99.90;;;;;;5016108;28;20317;-74
2022/11/11 04:11:41;;;;;;;;;;;2.30;99.90;;;;;;5033693;28;20353;-74
2022/11/11 04:16:52;;;;;;;;;;;1.80;99.90;;;;;;5033577;28;19940;-74
2022/11/11 04:22:02;;;;;;;;;;;2.20;99.90;;;;;;5035744;28;19939;-75
2022/11/11 04:27:13;;;;;;;;;;;1.60;99.90;;;;;;5036254;28;19935;-74
2022/11/11 04:29:39;;;;;;;;;;;1.90;99.90;;;;;;5035412;28;20060;-75
2022/11/11 04:34:51;;;;;;;;;;;2.30;99.90;;;;;;5035431;28;19943;-75
2022/11/11 04:37:18;;;;;;;;;;;2.10;99.90;;;;;;5016308;28;20428;-75
2022/11/11 04:42:28;;;;;;;;;;;2.60;99.90;;;;;;5032500;28;19959;-75
2022/11/11 04:47:51;;;;;;;;;;;2.10;99.90;;;;;;5032378;28;19935;-74
2022/11/11 04:50:16;;;;;;;;;;;2.90;99.90;;;;;;5032198;28;19911;-74
2022/11/11 04:52:42;;;;;;;;;;;1.40;99.90;;;;;;5032164;28;19905;-73
2022/11/11 04:57:53;;;;;;;;;;;1.20;99.90;;;;;;5010969;28;19909;-75
2022/11/11 05:00:19;;;;;;;;;;;1.20;99.90;;;;;;5014314;28;20298;-75
2022/11/11 05:08:54;;;;;;;;;;;1.40;99.90;;;;;;5031823;28;19959;-74
2022/11/11 05:10:59;;;;;;;;;;;2.90;99.90;;;;;;5032058;28;19912;-74
2022/11/11 05:21:52;;;;;;;;;;;1.30;99.90;;;;;;5031860;28;19935;-74
2022/11/11 05:27:02;;;;;;;;;;;1.60;99.90;;;;;;5031073;28;19912;-74
2022/11/11 05:29:27;;;;;;;;;;;1.70;99.90;;;;;;5031427;28;19909;-74
2022/11/11 05:31:53;;;;;;;;;;;1.10;99.90;;;;;;5013607;28;19909;-74
2022/11/11 05:34:18;;;;;;;;;;;1.90;99.90;;;;;;5030978;28;19909;-74
2022/11/11 05:36:44;;;;;;;;;;;1.00;99.90;;;;;;5030815;28;20277;-74
2022/11/11 05:39:09;;;;;;;;;;;3.00;99.90;;;;;;5029682;28;19905;-74
2022/11/11 05:41:35;;;;;;;;;;;1.00;99.90;;;;;;5029555;28;19909;-74
2022/11/11 05:44:00;;;;;;;;;;;1.90;99.90;;;;;;5029491;28;19944;-75
2022/11/11 05:46:25;;;;;;;;;;;1.40;99.90;;;;;;5011578;28;20006;-73
2022/11/11 05:51:35;;;;;;;;;;;1.00;99.90;;;;;;5029005;28;20050;-74
2022/11/11 05:54:00;;;;;;;;;;;1.00;99.90;;;;;;5029722;28;20000;-74
2022/11/11 05:56:26;;;;;;;;;;;1.00;99.90;;;;;;5029064;28;19932;-74
2022/11/11 05:58:51;;;;;;;;;;;2.70;99.90;;;;;;5028941;28;20338;-74
2022/11/11 06:01:17;;;;;;;;;;;1.90;99.90;;;;;;5028936;28;19912;-74
2022/11/11 06:03:43;;;;;;;;;;;1.80;99.90;;;;;;5029261;28;19916;-77
2022/11/11 06:06:09;;;;;;;;;;;1.90;99.90;;;;;;5011506;28;19912;-76
2022/11/11 06:08:35;;;;;;;;;;;1.70;99.90;;;;;;5011269;28;19913;-76
2022/11/11 06:11:00;;;;;;;;;;;1.80;99.90;;;;;;5011857;28;20376;-77
2022/11/11 06:13:26;;;;;;;;;;;1.90;99.90;;;;;;5012564;28;20372;-77
2022/11/11 06:15:51;;;;;;;;;;;1.80;99.90;;;;;;5030415;28;19909;-76
2022/11/11 06:18:17;;;;;;;;;;;1.20;99.90;;;;;;5030489;28;19905;-77
2022/11/11 06:20:42;;;;;;;;;;;2.10;99.90;;;;;;5030711;28;20337;-76
2022/11/11 06:23:08;;;;;;;;;;;1.30;99.90;;;;;;5030216;28;19917;-77
2022/11/11 06:28:18;;;;;;;;;;;1.40;99.90;;;;;;5030801;28;19932;-76
2022/11/11 06:30:44;;;;;;;;;;;1.40;99.90;;;;;;5012467;28;20362;-76
2022/11/11 06:33:09;;;;;;;;;;;1.50;99.90;;;;;;5012366;28;19913;-76
2022/11/11 06:35:36;;;;;;;;;;;2.10;99.90;;;;;;5012325;28;19917;-76
2022/11/11 06:38:02;;;;;;;;;;;1.60;99.90;;;;;;5030422;28;19919;-76
2022/11/11 06:40:28;;;;;;;;;;;3.00;99.90;;;;;;5033301;28;19905;-77
2022/11/11 06:42:53;;;;;;;;;;;1.70;99.90;;;;;;5034300;28;19966;-77
2022/11/11 06:45:19;;;;;;;;;;;1.70;99.90;;;;;;5034319;28;19905;-76
2022/11/11 06:47:44;;;;;;;;;;;1.80;99.90;;;;;;5034070;28;19909;-77
2022/11/11 06:50:10;;;;;;;;;;;1.90;99.90;;;;;;5034084;28;20270;-76
2022/11/11 06:52:35;;;;;;;;;;;1.80;99.90;;;;;;5033992;28;19976;-77
2022/11/11 06:55:01;;;;;;;;;;;1.90;99.90;;;;;;5034246;28;20313;-76
2022/11/11 06:57:26;;;;;;;;;;;2.00;99.90;;;;;;5034397;28;19940;-76
2022/11/11 06:59:52;;;;;;;;;;;2.00;99.90;;;;;;5034172;28;19908;-77
2022/11/11 07:02:17;;;;;;;;;;;1.90;99.90;;;;;;5033695;28;19952;-76
2022/11/11 07:04:43;;;;;;;;;;;2.20;99.90;;;;;;5033118;28;19958;-76
2022/11/11 07:07:08;;;;;;;;;;;2.00;99.90;;;;;;5033938;28;19905;-77
2022/11/11 07:09:34;;;;;;;;;;;2.00;99.90;;;;;;5033592;28;19909;-76
2022/11/11 07:12:00;;;;;;;;;;;3.10;99.90;;;;;;5032657;28;19912;-77
2022/11/11 07:14:26;;;;;;;;;;;2.70;99.90;;;;;;5034022;28;19979;-76
2022/11/11 07:16:51;;;;;;;;;;;1.80;99.90;;;;;;5034138;28;20337;-77
2022/11/11 07:19:17;;;;;;;;;;;1.90;99.90;;;;;;5033386;28;19911;-77
2022/11/11 07:21:42;;;;;;;;;;;2.10;99.90;;;;;;5033352;28;19913;-77
2022/11/11 07:24:08;;;;;;;;;;;2.10;99.90;;;;;;5033980;28;19909;-77
2022/11/11 07:26:33;;;;;;;;;;;2.80;99.90;;;;;;5033595;28;19982;-76
2022/11/11 07:28:59;;;;;;;;;;;4.00;99.90;;;;;;5033849;28;19909;-76
2022/11/11 07:31:24;;;;;;;;;;;2.40;99.90;;;;;;5033810;28;19909;-76
2022/11/11 07:33:50;;;;;;;;;;;2.40;99.90;;;;;;5033585;28;19905;-76
2022/11/11 07:36:15;;;;;;;;;;;2.50;99.90;;;;;;5032974;28;20430;-76
2022/11/11 07:38:42;;;;;;;;;;;2.70;99.90;;;;;;5032517;28;20289;-76
2022/11/11 07:41:08;;;;;;;;;;;2.70;99.90;;;;;;5033021;28;19953;-77
2022/11/11 07:43:33;;;;;;;;;;;3.20;99.90;;;;;;5033050;28;19967;-76
2022/11/11 07:45:59;;;;;;;;;;;2.90;99.90;;;;;;5032825;28;19979;-76
2022/11/11 07:48:24;;;;;;;;;;;3.00;99.90;;;;;;5033056;28;20122;-76
2022/11/11 07:50:50;;;;;;;;;;;4.10;99.90;;;;;;5014830;28;19909;-76
2022/11/11 07:53:17;;;;;;;;;;;4.30;99.90;;;;;;5033124;28;20417;-77
2022/11/11 07:55:44;;;;;;;;;;;5.50;99.90;;;;;;5032823;28;19909;-76
2022/11/11 07:58:09;;;;;;;;;;;3.70;99.90;;;;;;5015247;28;20361;-76
2022/11/11 08:00:35;;;;;;;;;;;6.10;99.90;;;;;;5032665;28;19912;-77
2022/11/11 08:03:00;;;;;;;;;;;5.60;99.90;;;;;;5032029;28;19920;-77
2022/11/11 08:05:26;;;;;;;;;;;4.30;99.90;;;;;;5032612;28;19909;-77
2022/11/11 08:07:52;;;;;;;;;;;4.60;99.90;;;;;;5032651;28;20351;-76
2022/11/11 08:10:17;;;;;;;;;;;4.60;99.90;;;;;;5032427;28;20000;-77
2022/11/11 08:15:27;;;;;;;;;;;4.90;99.90;;;;;;5031761;28;20051;-77
2022/11/11 08:17:52;;;;;;;;;;;6.00;99.90;;;;;;5013596;28;19991;-77
2022/11/11 08:20:18;;;;;;;;;;;5.00;99.90;;;;;;5014036;28;20274;-77
2022/11/11 08:22:44;;;;;;;;;;;5.10;99.90;;;;;;5031560;28;19920;-77
2022/11/11 08:25:10;;;;;;;;;;;5.20;99.90;;;;;;5013803;28;19912;-78
2022/11/11 08:27:36;;;;;;;;;;;5.40;99.90;;;;;;5031492;28;19906;-77
2022/11/11 08:30:02;;;;;;;;;;;5.60;99.90;;;;;;5031563;28;19927;-77
2022/11/11 08:32:27;;;;;;;;;;;5.70;99.90;;;;;;5013637;28;19905;-78
2022/11/11 08:34:53;;;;;;;;;;;5.90;99.90;;;;;;4991770;28;1175005;-77
2022/11/11 08:37:18;;;;;;;;;;;6.00;99.90;;;;;;5042411;28;20501;-77
2022/11/11 08:39:44;;;;;;;;;;;6.10;99.90;;;;;;5038194;28;20511;-78
2022/11/11 08:42:09;;;;;;;;;;;6.30;99.90;;;;;;5055121;28;20209;-78
2022/11/11 08:44:35;;;;;;;;;;;6.50;99.90;;;;;;5038361;28;19928;-78
2022/11/11 08:47:01;;;;;;;;;;;6.60;99.90;;;;;;5035580;28;20277;-78
2022/11/11 08:49:26;;;;;;;;;;;6.80;99.90;;;;;;5051807;28;19904;-77
2022/11/11 08:51:51;;;;;;;;;;;7.00;99.90;;;;;;5055348;28;20076;-77
2022/11/11 08:54:17;;;;;;;;;;;7.10;99.90;;;;;;5052513;28;20349;-78
2022/11/11 08:56:43;;;;;;;;;;;7.20;99.90;;;;;;5034489;28;19915;-77
2022/11/11 08:59:09;;;;;;;;;;;7.30;99.90;;;;;;5052051;28;19905;-77
2022/11/11 09:01:34;;;;;;;;;;;7.30;99.90;;;;;;5050967;28;19963;-77
2022/11/11 09:04:00;;;;;;;;;;;7.40;99.90;;;;;;5051159;28;20328;-77
2022/11/11 09:06:27;;;;;;;;;;;7.50;99.90;;;;;;5033947;28;19905;-78
2022/11/11 09:08:52;;;;;;;;;;;7.70;99.90;;;;;;5033550;28;19905;-78
2022/11/11 09:11:18;;;;;;;;;;;7.90;99.90;;;;;;5036943;28;19904;-77
2022/11/11 09:13:45;;;;;;;;;;;8.00;99.90;;;;;;5051219;28;19905;-77
2022/11/11 09:16:11;;;;;;;;;;;8.00;99.90;;;;;;5033707;28;19936;-78
2022/11/11 09:18:36;;;;;;;;;;;8.10;99.90;;;;;;5051443;28;19904;-78
2022/11/11 09:21:02;;;;;;;;;;;8.20;99.90;;;;;;5033789;28;20285;-77
2022/11/11 09:23:27;;;;;;;;;;;8.20;99.90;;;;;;5051473;28;19989;-78
2022/11/11 09:25:53;;;;;;;;;;;8.30;99.90;;;;;;5033554;28;20361;-78
2022/11/11 09:28:19;;;;;;;;;;;8.30;99.90;;;;;;5051504;28;19905;-77
2022/11/11 09:30:44;;;;;;;;;;;8.40;99.90;;;;;;5051340;28;19915;-77
2022/11/11 09:33:11;;;;;;;;;;;8.50;99.90;;;;;;5050925;28;20467;-77
2022/11/11 09:35:39;;;;;;;;;;;8.70;99.90;;;;;;5032850;28;19966;-78
2022/11/11 09:38:05;;;;;;;;;;;8.70;99.90;;;;;;5051035;28;19909;-78
2022/11/11 09:40:54;;;;;;;;;;;8.90;99.90;;;;;;5031222;28;20211;-77
2022/11/11 09:43:19;;;;;;;;;;;9.00;99.90;;;;;;5030432;28;19962;-77
2022/11/11 09:46:09;;;;;;;;;;;9.10;99.90;;;;;;5029624;28;19960;-77
2022/11/11 09:48:38;;;;;;;;;;;9.90;99.90;;;;;;5011956;28;19916;-77
2022/11/11 09:51:05;;;;;;;;;;;9.30;99.90;;;;;;5028827;28;19909;-77
2022/11/11 09:53:39;;;;;;;;;;;9.30;99.90;;;;;;5027699;28;19909;-77
2022/11/11 09:56:18;;;;;;;;;;;9.40;99.90;;;;;;5027590;28;20353;-76
2022/11/11 09:58:44;;;;;;;;;;;;;;;;;;5027508;28;19944;-76
2022/11/11 10:01:15;;;;;;;;;;;9.50;99.90;;;;;;5028949;28;20277;-76
2022/11/11 10:03:48;;;;;;;;;;;9.70;99.90;;;;;;5010613;28;19917;-77
2022/11/11 10:06:16;;;;;;;;;;;9.80;99.90;;;;;;5027900;28;20137;-77
2022/11/11 10:08:45;;;;;;;;;;;9.90;99.90;;;;;;5027352;28;20281;-77
2022/11/11 10:11:15;;;;;;;;;;;10.00;99.90;;;;;;5027686;28;19909;-76
2022/11/11 10:13:41;;;;;;;;;;;9.90;99.90;;;;;;5026541;28;19905;-77
2022/11/11 10:16:18;;;;;;;;;;;10.00;99.90;;;;;;5033560;28;19945;-78
2022/11/11 10:18:55;;;;;;;;;;;10.00;99.90;;;;;;5027810;28;20006;-77
2022/11/11 10:21:41;;;;;;;;;;;10.00;99.90;;;;;;5028010;28;19905;-77
2022/11/11 10:24:14;;;;;;;;;;;10.00;99.90;;;;;;5034670;28;19913;-76
2022/11/11 10:26:41;;;;;;;;;;;10.20;99.90;;;;;;5034456;28;20152;-76
2022/11/11 10:29:14;;;;;;;;;;;10.20;99.90;;;;;;5038846;28;19909;-76
2022/11/11 10:31:40;;;;;;;;;;;10.30;99.90;;;;;;5035130;28;19909;-76
2022/11/11 10:34:10;;;;;;;;;;;10.30;99.90;;;;;;5009906;28;19921;-77
2022/11/11 10:36:39;;;;;;;;;;;10.40;99.90;;;;;;5027716;28;19959;-76
2022/11/11 10:39:05;;;;;;;;;;;10.50;99.90;;;;;;5027948;28;19920;-76
2022/11/11 10:41:39;;;;;;;;;;;10.60;99.90;;;;;;5027942;28;19905;-78
2022/11/11 10:44:19;;;;;;;;;;;10.80;99.90;;;;;;5031357;28;19901;-76
2022/11/11 10:46:52;;;;;;;;;;;10.80;99.90;;;;;;5009441;28;19905;-76
2022/11/11 10:49:19;;;;;;;;;;;11.00;99.90;;;;;;5028099;28;20004;-77
2022/11/11 10:51:50;;;;;;;;;;;11.10;99.90;;;;;;5028380;28;19992;-76
2022/11/11 10:54:19;;;;;;;;;;;11.30;99.90;;;;;;5027188;28;20262;-77
2022/11/11 10:57:03;;;;;;;;;;;11.40;99.90;;;;;;5030250;28;19917;-76
2022/11/11 10:59:49;;;;;;;;;;;11.30;99.90;;;;;;5026923;28;19910;-77
2022/11/11 11:02:23;;;;;;;;;;;11.40;99.90;;;;;;5026448;28;19921;-75
2022/11/11 11:04:55;;;;;;;;;;;11.50;99.90;;;;;;5027719;28;20366;-77
2022/11/11 11:07:25;;;;;;;;;;;11.90;99.90;;;;;;5009428;28;20004;-77
2022/11/11 11:10:02;;;;;;;;;;;11.80;99.90;;;;;;5027188;28;19917;-77
2022/11/11 11:12:37;;;;;;;;;;;12.20;99.90;;;;;;5028676;28;19916;-77
2022/11/11 11:15:08;;;;;;;;;;;12.30;99.90;;;;;;5026898;28;19905;-77
2022/11/11 11:17:39;;;;;;;;;;;12.20;99.90;;;;;;5027410;28;19912;-77
2022/11/11 11:20:13;;;;;;;;;;;12.30;99.90;;;;;;5027523;28;20006;-76
2022/11/11 11:22:45;;;;;;;;;;;12.30;99.90;;;;;;5027150;28;20445;-77
2022/11/11 11:25:11;;;;;;;;;;;12.40;99.90;;;;;;5035469;28;19916;-77
2022/11/11 11:27:36;;;;;;;;;;;12.50;99.90;;;;;;5050823;28;20188;-76
2022/11/11 11:30:10;;;;;;;;;;;12.70;99.90;;;;;;5048304;28;19920;-77
2022/11/11 11:32:35;;;;;;;;;;;12.90;99.90;;;;;;5049159;28;19909;-77
2022/11/11 11:35:01;;;;;;;;;;;13.10;99.90;;;;;;5034004;28;19920;-77
2022/11/11 11:37:27;;;;;;;;;;;13.30;99.90;;;;;;5051466;28;19904;-77
2022/11/11 11:40:00;;;;;;;;;;;13.40;99.90;;;;;;5050813;28;20016;-77
2022/11/11 11:42:30;;;;;;;;;;;13.40;99.90;;;;;;5041568;28;20125;-76
2022/11/11 11:44:57;;;;;;;;;;;13.40;99.90;;;;;;5018972;28;19916;-77
2022/11/11 11:47:41;;;;;;;;;;;13.60;99.90;;;;;;5036386;28;20171;-77
2022/11/11 11:50:23;;;;;;;;;;;13.60;99.90;;;;;;5035189;28;19932;-76
2022/11/11 11:52:49;;;;;;;;;;;13.60;99.90;;;;;;5039147;28;19972;-77
2022/11/11 11:55:16;;;;;;;;;;;13.60;99.90;;;;;;5047570;28;19909;-77
2022/11/11 11:57:51;;;;;;;;;;;13.50;99.90;;;;;;5043369;28;20050;-78
2022/11/11 12:00:19;;;;;;;;;;;13.70;99.90;;;;;;5041953;28;19917;-77
2022/11/11 12:03:14;;;;;;;;;;;13.90;99.90;;;;;;5030871;28;19913;-78
2022/11/11 12:05:59;;;;;;;;;;;13.90;99.90;;;;;;5023680;28;19912;-78
2022/11/11 12:08:25;;;;;;;;;;;;;;;;;;5028255;28;19912;-77
2022/11/11 12:11:01;;;;;;;;;;;14.30;99.90;;;;;;5039727;28;19935;-75
2022/11/11 12:13:41;;;;;;;;;;;14.30;99.90;;;;;;5044804;28;19979;-76
2022/11/11 12:16:19;;;;;;;;;;;14.40;99.90;;;;;;5021632;28;19909;-81
2022/11/11 12:18:59;;;;;;;;;;;14.40;99.90;;;;;;5024039;28;19971;-77
2022/11/11 12:21:31;;;;;;;;;;;14.40;99.90;;;;;;5029951;28;19921;-77
2022/11/11 12:24:21;;;;;;;;;;;14.40;99.90;;;;;;5013801;28;20030;-79
2022/11/11 12:27:00;;;;;;;;;;;14.50;99.90;;;;;;5011896;28;20420;-77
2022/11/11 12:29:38;;;;;;;;;;;14.70;99.90;;;;;;5012442;28;19909;-78
2022/11/11 12:32:04;;;;;;;;;;;14.70;99.90;;;;;;5014225;28;19966;-81
2022/11/11 12:34:35;;;;;;;;;;;14.90;99.90;;;;;;5017764;28;20008;-76
2022/11/11 12:37:30;;;;;;;;;;;14.90;99.90;;;;;;5015701;28;19913;-76
2022/11/11 12:39:56;;;;;;;;;;;14.80;99.90;;;;;;5015708;28;20412;-76
2022/11/11 12:42:27;;;;;;;;;;;14.80;99.90;;;;;;5028211;28;19917;-77
2022/11/11 12:44:56;;;;;;;;;;;14.80;99.90;;;;;;5029441;28;19905;-76
2022/11/11 12:47:28;;;;;;;;;;;14.80;99.90;;;;;;5028473;28;19909;-77
2022/11/11 12:50:03;;;;;;;;;;;15.80;99.90;;;;;;5030478;28;20007;-77
2022/11/11 12:52:28;;;;;;;;;;;15.80;99.90;;;;;;5013419;28;20269;-77
2022/11/11 12:54:57;;;;;;;;;;;15.70;99.90;;;;;;5030002;28;19920;-76
2022/11/11 12:57:28;;;;;;;;;;;15.70;99.90;;;;;;5032512;28;19909;-76
2022/11/11 12:59:57;;;;;;;;;;;15.60;99.90;;;;;;5030327;28;19902;-75
2022/11/11 13:02:28;;;;;;;;;;;15.70;99.90;;;;;;5029211;28;19966;-78
2022/11/11 13:04:58;;;;;;;;;;;15.80;99.90;;;;;;5029643;28;20451;-78
2022/11/11 13:07:32;;;;;;;;;;;15.80;99.90;;;;;;5012152;28;19927;-78
2022/11/11 13:10:04;;;;;;;;;;;15.70;99.90;;;;;;5012210;28;20484;-78
2022/11/11 13:12:35;;;;;;;;;;;15.70;99.90;;;;;;5028905;28;20148;-77
2022/11/11 13:15:03;;;;;;;;;;;15.60;99.90;;;;;;5031720;28;19905;-77
2022/11/11 13:17:31;;;;;;;;;;;15.50;99.90;;;;;;5014595;28;19972;-78
2022/11/11 13:20:01;;;;;;;;;;;15.50;99.90;;;;;;5013893;28;19909;-79
2022/11/11 13:22:28;;;;;;;;;;;15.50;99.90;;;;;;5015674;28;19924;-78
2022/11/11 13:24:54;;;;;;;;;;;15.50;99.90;;;;;;5014534;28;19911;-78
2022/11/11 13:27:20;;;;;;;;;;;15.60;99.90;;;;;;5031783;28;19927;-78
2022/11/11 13:29:58;;;;;;;;;;;15.60;99.90;;;;;;5029452;28;20429;-78
2022/11/11 13:32:26;;;;;;;;;;;15.70;99.90;;;;;;5032017;28;19905;-77
2022/11/11 13:34:52;;;;;;;;;;;15.60;99.90;;;;;;5035992;28;19921;-78
2022/11/11 13:37:27;;;;;;;;;;;15.70;99.90;;;;;;5015428;28;20387;-79
2022/11/11 13:39:54;;;;;;;;;;;15.80;99.90;;;;;;5036192;28;19901;-78
2022/11/11 13:42:21;;;;;;;;;;;15.90;99.90;;;;;;5034102;28;19924;-78
2022/11/11 13:44:55;;;;;;;;;;;16.00;99.90;;;;;;5014973;28;19909;-77
2022/11/11 13:47:26;;;;;;;;;;;16.20;99.30;;;;;;5012887;28;19932;-77
2022/11/11 13:49:54;;;;;;;;;;;16.20;98.70;;;;;;5031780;28;19905;-77
2022/11/11 13:52:21;;;;;;;;;;;16.30;98.90;;;;;;5031063;28;19905;-79
2022/11/11 13:54:48;;;;;;;;;;;16.40;98.90;;;;;;5030027;28;19992;-78
2022/11/11 13:57:13;;;;;;;;;;;16.70;97.60;;;;;;5029472;28;19913;-79
2022/11/11 13:59:48;;;;;;;;;;;16.70;97.20;;;;;;5028269;28;19905;-78
2022/11/11 14:02:17;;;;;;;;;;;17.10;95.80;;;;;;5028894;28;19920;-78
2022/11/11 14:05:01;;;;;;;;;;;17.40;94.00;;;;;;5029939;28;19909;-78
2022/11/11 14:07:47;;;;;;;;;;;17.60;94.60;;;;;;5028371;28;19905;-78
2022/11/11 14:10:16;;;;;;;;;;;17.60;94.60;;;;;;5029240;28;19912;-78
2022/11/11 14:12:41;;;;;;;;;;;17.60;93.70;;;;;;5028202;28;19911;-78
2022/11/11 14:15:26;;;;;;;;;;;17.50;93.70;;;;;;5029933;28;20003;-78
2022/11/11 14:17:52;;;;;;;;;;;17.80;93.30;;;;;;5030536;28;19909;-78
2022/11/11 14:20:39;;;;;;;;;;;18.00;92.30;;;;;;5032357;28;19991;-78
2022/11/11 14:23:16;;;;;;;;;;;18.00;91.70;;;;;;5032259;28;19920;-78
2022/11/11 14:25:42;;;;;;;;;;;17.90;91.50;;;;;;5030801;28;19908;-78
2022/11/11 14:28:28;;;;;;;;;;;17.90;91.00;;;;;;5012829;28;20493;-78
2022/11/11 14:31:20;;;;;;;;;;;17.60;91.40;;;;;;5031331;28;19905;-78
2022/11/11 14:33:46;;;;;;;;;;;17.50;91.40;;;;;;4990437;28;19911;-78
2022/11/11 14:36:11;;;;;;;;;;;17.50;91.20;;;;;;5030486;28;19908;-78
2022/11/11 14:38:43;;;;;;;;;;;17.40;91.80;;;;;;5028787;28;19908;-78
2022/11/11 14:41:27;;;;;;;;;;;16.90;92.60;;;;;;5030772;28;19909;-78
2022/11/11 14:43:52;;;;;;;;;;;16.90;91.90;;;;;;5030096;28;19917;-78
2022/11/11 14:46:18;;;;;;;;;;;16.60;92.70;;;;;;5031239;28;20239;-78
2022/11/11 14:48:46;;;;;;;;;;;16.10;93.70;;;;;;5013389;28;20366;-78
2022/11/11 14:51:34;;;;;;;;;;;15.70;94.50;;;;;;5031961;28;19936;-78
2022/11/11 14:54:01;;;;;;;;;;;15.50;95.30;;;;;;5030610;28;19959;-77
2022/11/11 14:56:27;;;;;;;;;;;15.10;96.40;;;;;;5031288;28;19911;-77
2022/11/11 14:58:53;;;;;;;;;;;14.50;97.80;;;;;;5032179;28;20019;-77
2022/11/11 15:01:20;;;;;;;;;;;14.00;99.70;;;;;;5033418;28;19905;-77
2022/11/11 15:03:48;;;;;;;;;;;13.40;99.90;;;;;;5033408;28;19913;-77
2022/11/11 15:06:23;;;;;;;;;;;13.00;99.90;;;;;;5014911;28;20365;-77
2022/11/11 15:09:12;;;;;;;;;;;12.60;99.90;;;;;;5033744;28;19958;-77
2022/11/11 15:11:49;;;;;;;;;;;12.20;99.90;;;;;;5025183;28;19909;-77
2022/11/11 15:14:24;;;;;;;;;;;11.90;99.90;;;;;;5015684;28;20276;-77
2022/11/11 15:16:57;;;;;;;;;;;11.60;99.90;;;;;;5033342;28;19920;-77
2022/11/11 15:19:42;;;;;;;;;;;11.30;99.90;;;;;;5033464;28;19909;-77
2022/11/11 15:22:26;;;;;;;;;;;11.00;99.90;;;;;;5033648;28;20306;-77
2022/11/11 15:24:57;;;;;;;;;;;10.70;99.90;;;;;;5033536;28;19905;-77
2022/11/11 15:27:38;;;;;;;;;;;10.40;99.90;;;;;;5016037;28;19963;-77
2022/11/11 15:30:13;;;;;;;;;;;10.20;99.90;;;;;;5016048;28;19935;-77
2022/11/11 15:32:59;;;;;;;;;;;9.90;99.90;;;;;;5033731;28;19905;-77
2022/11/11 15:35:28;;;;;;;;;;;9.80;99.90;;;;;;5033504;28;19932;-77
2022/11/11 15:37:55;;;;;;;;;;;9.60;99.90;;;;;;5033525;28;19991;-77
2022/11/11 15:40:22;;;;;;;;;;;9.40;99.90;;;;;;5015551;28;20818;-77
2022/11/11 15:42:51;;;;;;;;;;;9.30;99.90;;;;;;5033640;28;20042;-77
2022/11/11 15:45:16;;;;;;;;;;;9.20;99.90;;;;;;5015752;28;20372;-77
2022/11/11 15:47:42;;;;;;;;;;;9.00;99.90;;;;;;5033383;28;19913;-77
2022/11/11 15:50:17;;;;;;;;;;;8.90;99.90;;;;;;5033325;28;19920;-77
2022/11/11 15:52:43;;;;;;;;;;;8.70;99.90;;;;;;5033345;28;19913;-77
2022/11/11 15:55:19;;;;;;;;;;;8.60;99.90;;;;;;5033725;28;19913;-77
2022/11/11 15:57:44;;;;;;;;;;;8.50;99.90;;;;;;5033565;28;19905;-77
2022/11/11 16:00:22;;;;;;;;;;;8.30;99.90;;;;;;5033283;28;19912;-77
2022/11/11 16:02:48;;;;;;;;;;;8.20;99.90;;;;;;5032792;28;19959;-77